This is the latest recevied weather packets stored in our database for station/object K5SVV. If no packets are shown the sender has not sent any weather packets the latest 10 day(s).
| Time | Temp. | Humidity | Pressure | Rain* | Wind** | Luminosity | Snow |
|---|---|---|---|---|---|---|---|
| 1777511881 | 15.56° C | 92% | 1012.2 hPa | 0 mm | - | 0 W/m² | - |
| 1777511579 | 15.56° C | 92% | 1012 hPa | 0 mm | - | 0 W/m² | - |
| 1777511276 | 15.56° C | 92% | 1012.9 hPa | 0 mm | - | 0 W/m² | - |
| 1777510971 | 15.56° C | 91% | 1012.8 hPa | 0 mm | - | 0 W/m² | - |
| 1777510669 | 15.56° C | 91% | 1012.6 hPa | 0 mm | - | 0 W/m² | - |
| 1777510364 | 15.56° C | 91% | 1012.4 hPa | 0 mm | - | 0 W/m² | - |
| 1777510061 | 15.56° C | 91% | 1012.5 hPa | 0 mm | - | 0 W/m² | - |
| 1777509758 | 15.56° C | 91% | 1012.5 hPa | 0 mm | - | 0 W/m² | - |
| 1777509453 | 15.56° C | 92% | 1012.8 hPa | 0 mm | - | 1 W/m² | - |
| 1777509152 | 15.56° C | 94% | 1012.8 hPa | 0 mm | - | 2 W/m² | - |
| 1777508849 | 15.56° C | 95% | 1012.8 hPa | 0 mm | - | 2 W/m² | - |
| 1777508546 | 16.11° C | 95% | 1012.4 hPa | 0 mm | - | 5 W/m² | - |
| 1777508242 | 16.11° C | 96% | 1012.8 hPa | 0 mm | - | 3 W/m² | - |
| 1777507940 | 16.11° C | 96% | 1010.7 hPa | 0 mm | - | 49 W/m² | - |
| 1777507636 | 16.67° C | 96% | 1010.5 hPa | 0 mm | - | 68 W/m² | - |
| 1777507334 | 16.67° C | 96% | 1011 hPa | 0 mm | - | 65 W/m² | - |
| 1777507031 | 16.67° C | 96% | 1011 hPa | 0 mm | - | 65 W/m² | - |
| 1777506728 | 16.67° C | 95% | 1011.8 hPa | 0 mm | - | 54 W/m² | - |
| 1777506424 | 16.67° C | 95% | 1011.1 hPa | 0 mm | - | 78 W/m² | - |
| 1777506120 | 16.11° C | 95% | 1011.5 hPa | 0 mm | - | 69 W/m² | - |
| 1777505815 | 16.11° C | 95% | 1011.8 hPa | 0 mm | - | 91 W/m² | - |
| 1777505512 | 16.11° C | 95% | 1012 hPa | 0 mm | - | 86 W/m² | - |
| 1777505210 | 16.11° C | 95% | 1011.9 hPa | 1.27 mm | - | 101 W/m² | - |
| 1777504906 | 16.11° C | 95% | 1012.1 hPa | 3.05 mm | - | 50 W/m² | - |
| 1777504604 | 16.11° C | 95% | 1011.6 hPa | 1.78 mm | - | 61 W/m² | - |
* Rain latest hour (hover to see other rain measurements)
** Current wind speed in m/s (hover to see current wind gust speed)